sensor_id;sensor_type;location;lat;lon;timestamp;P1;durP1;ratioP1;P2;durP2;ratioP2
16177;SDS011;8195;51.220;9.746;2023-11-18T00:01:18;6.70;;;6.10;;
16177;SDS011;8195;51.220;9.746;2023-11-18T00:05:38;8.03;;;6.40;;
16177;SDS011;8195;51.220;9.746;2023-11-18T00:09:59;7.93;;;5.97;;
16177;SDS011;8195;51.220;9.746;2023-11-18T00:14:19;7.43;;;5.83;;
16177;SDS011;8195;51.220;9.746;2023-11-18T00:18:39;8.27;;;6.43;;
16177;SDS011;8195;51.220;9.746;2023-11-18T00:23:00;6.73;;;5.57;;
16177;SDS011;8195;51.220;9.746;2023-11-18T00:27:20;7.23;;;6.47;;
16177;SDS011;8195;51.220;9.746;2023-11-18T00:31:40;7.47;;;6.63;;
16177;SDS011;8195;51.220;9.746;2023-11-18T00:36:01;7.30;;;6.10;;
16177;SDS011;8195;51.220;9.746;2023-11-18T00:40:21;7.83;;;6.93;;
16177;SDS011;8195;51.220;9.746;2023-11-18T00:44:41;10.90;;;6.60;;
16177;SDS011;8195;51.220;9.746;2023-11-18T00:49:03;7.33;;;6.63;;
16177;SDS011;8195;51.220;9.746;2023-11-18T00:53:23;8.03;;;7.13;;
16177;SDS011;8195;51.220;9.746;2023-11-18T00:57:44;7.53;;;6.83;;
16177;SDS011;8195;51.220;9.746;2023-11-18T01:02:05;7.80;;;7.00;;
16177;SDS011;8195;51.220;9.746;2023-11-18T01:06:26;9.23;;;7.60;;
16177;SDS011;8195;51.220;9.746;2023-11-18T01:10:46;8.87;;;6.87;;
16177;SDS011;8195;51.220;9.746;2023-11-18T01:15:07;8.40;;;7.53;;
16177;SDS011;8195;51.220;9.746;2023-11-18T01:19:27;10.67;;;7.30;;
16177;SDS011;8195;51.220;9.746;2023-11-18T01:23:48;8.07;;;7.00;;
16177;SDS011;8195;51.220;9.746;2023-11-18T01:28:08;9.83;;;7.27;;
16177;SDS011;8195;51.220;9.746;2023-11-18T01:32:28;7.47;;;6.63;;
16177;SDS011;8195;51.220;9.746;2023-11-18T01:36:49;8.37;;;7.03;;
16177;SDS011;8195;51.220;9.746;2023-11-18T01:41:09;8.20;;;6.97;;
16177;SDS011;8195;51.220;9.746;2023-11-18T01:45:30;8.37;;;7.23;;
16177;SDS011;8195;51.220;9.746;2023-11-18T01:49:50;8.10;;;7.30;;
16177;SDS011;8195;51.220;9.746;2023-11-18T01:54:10;8.47;;;7.43;;
16177;SDS011;8195;51.220;9.746;2023-11-18T01:58:33;8.03;;;6.43;;
16177;SDS011;8195;51.220;9.746;2023-11-18T02:02:54;7.80;;;7.00;;
16177;SDS011;8195;51.220;9.746;2023-11-18T02:17:37;9.57;;;7.47;;
16177;SDS011;8195;51.220;9.746;2023-11-18T03:25:09;8.30;;;6.93;;
16177;SDS011;8195;51.220;9.746;2023-11-18T03:29:45;8.20;;;6.67;;
16177;SDS011;8195;51.220;9.746;2023-11-18T03:34:30;8.27;;;7.20;;
16177;SDS011;8195;51.220;9.746;2023-11-18T03:39:19;8.20;;;7.40;;
16177;SDS011;8195;51.220;9.746;2023-11-18T03:44:28;7.77;;;6.97;;
16177;SDS011;8195;51.220;9.746;2023-11-18T03:49:00;8.40;;;6.93;;
16177;SDS011;8195;51.220;9.746;2023-11-18T03:53:53;10.57;;;6.97;;
16177;SDS011;8195;51.220;9.746;2023-11-18T03:58:20;9.13;;;7.60;;
16177;SDS011;8195;51.220;9.746;2023-11-18T04:02:43;8.10;;;7.23;;
16177;SDS011;8195;51.220;9.746;2023-11-18T04:07:07;11.07;;;8.37;;
16177;SDS011;8195;51.220;9.746;2023-11-18T04:11:30;9.47;;;8.23;;
16177;SDS011;8195;51.220;9.746;2023-11-18T04:15:53;11.23;;;8.00;;
16177;SDS011;8195;51.220;9.746;2023-11-18T04:20:15;10.23;;;8.53;;
16177;SDS011;8195;51.220;9.746;2023-11-18T04:24:37;18.27;;;15.43;;
16177;SDS011;8195;51.220;9.746;2023-11-18T04:28:58;19.50;;;17.43;;
16177;SDS011;8195;51.220;9.746;2023-11-18T04:33:20;23.77;;;19.50;;
16177;SDS011;8195;51.220;9.746;2023-11-18T04:37:41;22.17;;;19.90;;
16177;SDS011;8195;51.220;9.746;2023-11-18T04:42:02;20.17;;;18.00;;
16177;SDS011;8195;51.220;9.746;2023-11-18T04:46:24;21.17;;;17.60;;
16177;SDS011;8195;51.220;9.746;2023-11-18T04:50:54;20.07;;;17.43;;
16177;SDS011;8195;51.220;9.746;2023-11-18T04:55:15;22.27;;;18.37;;
16177;SDS011;8195;51.220;9.746;2023-11-18T04:59:38;22.27;;;17.73;;
16177;SDS011;8195;51.220;9.746;2023-11-18T05:03:59;19.90;;;17.67;;
16177;SDS011;8195;51.220;9.746;2023-11-18T05:08:21;17.50;;;14.40;;
16177;SDS011;8195;51.220;9.746;2023-11-18T05:12:42;15.93;;;14.23;;
16177;SDS011;8195;51.220;9.746;2023-11-18T05:17:05;18.60;;;16.70;;
16177;SDS011;8195;51.220;9.746;2023-11-18T05:21:27;19.07;;;17.03;;
16177;SDS011;8195;51.220;9.746;2023-11-18T05:25:49;16.50;;;14.60;;
16177;SDS011;8195;51.220;9.746;2023-11-18T05:30:10;15.90;;;14.13;;
16177;SDS011;8195;51.220;9.746;2023-11-18T05:34:31;14.40;;;12.90;;
16177;SDS011;8195;51.220;9.746;2023-11-18T05:38:52;16.57;;;14.27;;
16177;SDS011;8195;51.220;9.746;2023-11-18T05:43:13;14.50;;;11.83;;
16177;SDS011;8195;51.220;9.746;2023-11-18T05:47:35;13.50;;;11.87;;
16177;SDS011;8195;51.220;9.746;2023-11-18T05:51:57;13.63;;;12.23;;
16177;SDS011;8195;51.220;9.746;2023-11-18T05:56:18;13.93;;;12.53;;
16177;SDS011;8195;51.220;9.746;2023-11-18T06:00:40;16.23;;;12.13;;
16177;SDS011;8195;51.220;9.746;2023-11-18T06:05:00;12.83;;;11.53;;
16177;SDS011;8195;51.220;9.746;2023-11-18T06:09:22;14.37;;;11.43;;
16177;SDS011;8195;51.220;9.746;2023-11-18T06:13:44;14.33;;;12.27;;
16177;SDS011;8195;51.220;9.746;2023-11-18T06:18:08;16.07;;;12.20;;
16177;SDS011;8195;51.220;9.746;2023-11-18T06:22:30;16.90;;;11.43;;
16177;SDS011;8195;51.220;9.746;2023-11-18T06:26:50;15.37;;;11.63;;
16177;SDS011;8195;51.220;9.746;2023-11-18T06:31:12;14.70;;;12.23;;
16177;SDS011;8195;51.220;9.746;2023-11-18T06:35:33;13.70;;;12.13;;
16177;SDS011;8195;51.220;9.746;2023-11-18T06:39:57;14.07;;;12.10;;
16177;SDS011;8195;51.220;9.746;2023-11-18T06:44:18;14.30;;;11.10;;
16177;SDS011;8195;51.220;9.746;2023-11-18T06:48:39;14.77;;;11.53;;
16177;SDS011;8195;51.220;9.746;2023-11-18T06:53:01;13.63;;;10.90;;
16177;SDS011;8195;51.220;9.746;2023-11-18T06:57:21;13.90;;;11.67;;
16177;SDS011;8195;51.220;9.746;2023-11-18T07:01:44;13.87;;;11.43;;
16177;SDS011;8195;51.220;9.746;2023-11-18T07:06:05;14.17;;;10.50;;
16177;SDS011;8195;51.220;9.746;2023-11-18T07:10:26;14.77;;;10.90;;
16177;SDS011;8195;51.220;9.746;2023-11-18T07:14:49;12.57;;;10.20;;
16177;SDS011;8195;51.220;9.746;2023-11-18T07:19:13;12.57;;;9.83;;
16177;SDS011;8195;51.220;9.746;2023-11-18T07:23:42;12.57;;;9.60;;
16177;SDS011;8195;51.220;9.746;2023-11-18T07:28:19;11.37;;;9.40;;
16177;SDS011;8195;51.220;9.746;2023-11-18T07:47:52;8.80;;;7.68;;
16177;SDS011;8195;51.220;9.746;2023-11-18T07:52:13;9.10;;;7.53;;
16177;SDS011;8195;51.220;9.746;2023-11-18T08:05:14;7.37;;;6.57;;
16177;SDS011;8195;51.220;9.746;2023-11-18T08:22:30;6.63;;;6.03;;
16177;SDS011;8195;51.220;9.746;2023-11-18T08:26:50;8.70;;;6.60;;
16177;SDS011;8195;51.220;9.746;2023-11-18T08:31:12;7.10;;;6.40;;
16177;SDS011;8195;51.220;9.746;2023-11-18T08:35:33;7.77;;;7.03;;
16177;SDS011;8195;51.220;9.746;2023-11-18T08:39:53;7.17;;;6.47;;
16177;SDS011;8195;51.220;9.746;2023-11-18T08:44:14;7.20;;;6.47;;
16177;SDS011;8195;51.220;9.746;2023-11-18T08:48:34;7.53;;;6.70;;
16177;SDS011;8195;51.220;9.746;2023-11-18T08:52:55;6.93;;;6.03;;
16177;SDS011;8195;51.220;9.746;2023-11-18T08:57:15;6.67;;;5.97;;
16177;SDS011;8195;51.220;9.746;2023-11-18T09:01:36;6.53;;;5.93;;
16177;SDS011;8195;51.220;9.746;2023-11-18T09:05:57;6.60;;;5.97;;
16177;SDS011;8195;51.220;9.746;2023-11-18T09:10:18;6.30;;;5.70;;
16177;SDS011;8195;51.220;9.746;2023-11-18T09:14:38;5.80;;;5.00;;
16177;SDS011;8195;51.220;9.746;2023-11-18T09:18:59;6.95;;;6.38;;
16177;SDS011;8195;51.220;9.746;2023-11-18T09:23:19;6.23;;;5.73;;
16177;SDS011;8195;51.220;9.746;2023-11-18T09:27:39;5.90;;;5.40;;
16177;SDS011;8195;51.220;9.746;2023-11-18T09:31:59;8.13;;;7.37;;
16177;SDS011;8195;51.220;9.746;2023-11-18T09:36:20;9.40;;;8.27;;
16177;SDS011;8195;51.220;9.746;2023-11-18T09:40:40;9.00;;;8.23;;
16177;SDS011;8195;51.220;9.746;2023-11-18T09:45:03;9.17;;;8.27;;
16177;SDS011;8195;51.220;9.746;2023-11-18T09:49:27;8.30;;;7.50;;
16177;SDS011;8195;51.220;9.746;2023-11-18T09:53:51;8.97;;;7.73;;
16177;SDS011;8195;51.220;9.746;2023-11-18T09:58:15;10.13;;;9.13;;
16177;SDS011;8195;51.220;9.746;2023-11-18T10:02:38;8.00;;;7.30;;
16177;SDS011;8195;51.220;9.746;2023-11-18T10:07:01;7.97;;;7.30;;
16177;SDS011;8195;51.220;9.746;2023-11-18T10:11:22;7.70;;;7.00;;
16177;SDS011;8195;51.220;9.746;2023-11-18T10:15:42;6.57;;;6.07;;
16177;SDS011;8195;51.220;9.746;2023-11-18T10:20:03;6.27;;;5.77;;
16177;SDS011;8195;51.220;9.746;2023-11-18T10:24:24;6.43;;;5.93;;
16177;SDS011;8195;51.220;9.746;2023-11-18T10:28:44;6.53;;;6.00;;
16177;SDS011;8195;51.220;9.746;2023-11-18T10:33:06;6.40;;;5.90;;
16177;SDS011;8195;51.220;9.746;2023-11-18T10:37:27;6.47;;;5.93;;
16177;SDS011;8195;51.220;9.746;2023-11-18T10:41:47;7.17;;;6.47;;
16177;SDS011;8195;51.220;9.746;2023-11-18T10:46:08;7.40;;;6.77;;
16177;SDS011;8195;51.220;9.746;2023-11-18T10:50:29;7.50;;;6.90;;
16177;SDS011;8195;51.220;9.746;2023-11-18T10:54:50;6.67;;;6.07;;
16177;SDS011;8195;51.220;9.746;2023-11-18T10:59:11;8.00;;;7.00;;
16177;SDS011;8195;51.220;9.746;2023-11-18T11:03:31;7.20;;;6.60;;
16177;SDS011;8195;51.220;9.746;2023-11-18T11:07:51;8.10;;;7.27;;
16177;SDS011;8195;51.220;9.746;2023-11-18T11:12:12;7.67;;;6.97;;
16177;SDS011;8195;51.220;9.746;2023-11-18T11:16:36;7.87;;;7.07;;
16177;SDS011;8195;51.220;9.746;2023-11-18T11:21:06;8.37;;;7.67;;
16177;SDS011;8195;51.220;9.746;2023-11-18T11:30:23;9.23;;;8.23;;
16177;SDS011;8195;51.220;9.746;2023-11-18T11:34:48;10.00;;;9.03;;
16177;SDS011;8195;51.220;9.746;2023-11-18T11:39:11;10.00;;;9.10;;
16177;SDS011;8195;51.220;9.746;2023-11-18T11:43:32;10.30;;;9.30;;
16177;SDS011;8195;51.220;9.746;2023-11-18T11:47:55;9.73;;;8.80;;
16177;SDS011;8195;51.220;9.746;2023-11-18T11:52:38;11.17;;;10.03;;
16177;SDS011;8195;51.220;9.746;2023-11-18T11:56:57;12.37;;;11.17;;
16177;SDS011;8195;51.220;9.746;2023-11-18T12:01:27;15.88;;;14.57;;
16177;SDS011;8195;51.220;9.746;2023-11-18T12:05:55;13.73;;;12.30;;
16177;SDS011;8195;51.220;9.746;2023-11-18T12:10:15;13.93;;;12.33;;
16177;SDS011;8195;51.220;9.746;2023-11-18T12:14:49;14.20;;;12.70;;
16177;SDS011;8195;51.220;9.746;2023-11-18T12:19:29;13.30;;;11.70;;
16177;SDS011;8195;51.220;9.746;2023-11-18T12:24:14;14.00;;;12.50;;
16177;SDS011;8195;51.220;9.746;2023-11-18T12:28:35;23.00;;;20.97;;
16177;SDS011;8195;51.220;9.746;2023-11-18T12:41:39;14.07;;;11.90;;
16177;SDS011;8195;51.220;9.746;2023-11-18T12:46:20;13.83;;;12.33;;
16177;SDS011;8195;51.220;9.746;2023-11-18T12:50:54;17.77;;;13.03;;
16177;SDS011;8195;51.220;9.746;2023-11-18T12:55:15;14.07;;;12.43;;
16177;SDS011;8195;51.220;9.746;2023-11-18T12:59:37;18.63;;;13.47;;
16177;SDS011;8195;51.220;9.746;2023-11-18T13:03:57;18.87;;;13.07;;
16177;SDS011;8195;51.220;9.746;2023-11-18T13:08:33;35.83;;;14.93;;
16177;SDS011;8195;51.220;9.746;2023-11-18T13:12:53;138.70;;;30.43;;
16177;SDS011;8195;51.220;9.746;2023-11-18T13:17:15;24.07;;;16.70;;
16177;SDS011;8195;51.220;9.746;2023-11-18T13:21:35;20.90;;;15.93;;
16177;SDS011;8195;51.220;9.746;2023-11-18T13:25:56;14.20;;;11.97;;
16177;SDS011;8195;51.220;9.746;2023-11-18T13:30:18;16.97;;;14.70;;
16177;SDS011;8195;51.220;9.746;2023-11-18T13:34:39;14.57;;;13.07;;
16177;SDS011;8195;51.220;9.746;2023-11-18T13:38:59;17.93;;;14.10;;
16177;SDS011;8195;51.220;9.746;2023-11-18T13:43:27;18.37;;;15.83;;
16177;SDS011;8195;51.220;9.746;2023-11-18T13:48:02;19.87;;;15.47;;
16177;SDS011;8195;51.220;9.746;2023-11-18T13:52:23;18.50;;;14.60;;
16177;SDS011;8195;51.220;9.746;2023-11-18T13:56:43;17.53;;;14.97;;
16177;SDS011;8195;51.220;9.746;2023-11-18T14:01:07;16.80;;;14.13;;
16177;SDS011;8195;51.220;9.746;2023-11-18T14:05:28;18.43;;;14.53;;
16177;SDS011;8195;51.220;9.746;2023-11-18T14:09:48;18.03;;;14.07;;
16177;SDS011;8195;51.220;9.746;2023-11-18T14:14:08;15.60;;;14.00;;
16177;SDS011;8195;51.220;9.746;2023-11-18T14:18:29;17.00;;;13.73;;
16177;SDS011;8195;51.220;9.746;2023-11-18T14:22:52;18.17;;;14.20;;
16177;SDS011;8195;51.220;9.746;2023-11-18T14:27:12;17.60;;;14.60;;
16177;SDS011;8195;51.220;9.746;2023-11-18T14:31:33;18.37;;;14.03;;
16177;SDS011;8195;51.220;9.746;2023-11-18T14:35:53;17.00;;;14.30;;
16177;SDS011;8195;51.220;9.746;2023-11-18T14:40:14;21.50;;;19.20;;
16177;SDS011;8195;51.220;9.746;2023-11-18T14:44:35;18.70;;;15.20;;
16177;SDS011;8195;51.220;9.746;2023-11-18T14:48:55;18.13;;;15.40;;
16177;SDS011;8195;51.220;9.746;2023-11-18T14:53:15;17.63;;;14.60;;
16177;SDS011;8195;51.220;9.746;2023-11-18T14:57:36;18.20;;;15.70;;
16177;SDS011;8195;51.220;9.746;2023-11-18T15:01:56;17.93;;;14.93;;
16177;SDS011;8195;51.220;9.746;2023-11-18T15:06:26;17.03;;;14.63;;
16177;SDS011;8195;51.220;9.746;2023-11-18T15:10:49;17.80;;;14.57;;
16177;SDS011;8195;51.220;9.746;2023-11-18T15:15:10;18.63;;;14.93;;
16177;SDS011;8195;51.220;9.746;2023-11-18T15:19:30;19.63;;;15.90;;
16177;SDS011;8195;51.220;9.746;2023-11-18T15:23:51;17.03;;;14.60;;
16177;SDS011;8195;51.220;9.746;2023-11-18T15:28:11;19.77;;;15.37;;
16177;SDS011;8195;51.220;9.746;2023-11-18T15:32:31;17.07;;;14.50;;
16177;SDS011;8195;51.220;9.746;2023-11-18T15:36:52;17.70;;;15.00;;
16177;SDS011;8195;51.220;9.746;2023-11-18T15:56:10;12.00;;;10.00;;
16177;SDS011;8195;51.220;9.746;2023-11-18T16:00:30;10.47;;;7.43;;
16177;SDS011;8195;51.220;9.746;2023-11-18T16:04:51;9.37;;;7.53;;
16177;SDS011;8195;51.220;9.746;2023-11-18T16:09:11;9.23;;;7.63;;
16177;SDS011;8195;51.220;9.746;2023-11-18T16:13:31;7.50;;;6.70;;
16177;SDS011;8195;51.220;9.746;2023-11-18T16:17:52;8.80;;;7.10;;
16177;SDS011;8195;51.220;9.746;2023-11-18T16:22:13;10.23;;;8.40;;
16177;SDS011;8195;51.220;9.746;2023-11-18T16:26:34;9.10;;;7.97;;
16177;SDS011;8195;51.220;9.746;2023-11-18T16:30:55;8.67;;;7.70;;
16177;SDS011;8195;51.220;9.746;2023-11-18T16:35:15;9.87;;;8.50;;
16177;SDS011;8195;51.220;9.746;2023-11-18T16:39:36;11.33;;;9.53;;
16177;SDS011;8195;51.220;9.746;2023-11-18T16:48:53;10.40;;;9.30;;
16177;SDS011;8195;51.220;9.746;2023-11-18T16:53:14;8.73;;;7.30;;
16177;SDS011;8195;51.220;9.746;2023-11-18T16:57:34;8.93;;;7.37;;
16177;SDS011;8195;51.220;9.746;2023-11-18T17:01:55;8.43;;;7.57;;
16177;SDS011;8195;51.220;9.746;2023-11-18T17:06:15;8.83;;;7.77;;
16177;SDS011;8195;51.220;9.746;2023-11-18T17:10:35;7.80;;;7.10;;
16177;SDS011;8195;51.220;9.746;2023-11-18T17:14:56;9.20;;;8.23;;
16177;SDS011;8195;51.220;9.746;2023-11-18T17:19:16;19.23;;;17.67;;
16177;SDS011;8195;51.220;9.746;2023-11-18T17:23:36;37.50;;;34.30;;
16177;SDS011;8195;51.220;9.746;2023-11-18T17:27:57;15.33;;;14.23;;
16177;SDS011;8195;51.220;9.746;2023-11-18T17:32:17;6.63;;;6.03;;
16177;SDS011;8195;51.220;9.746;2023-11-18T17:36:37;6.20;;;5.60;;
16177;SDS011;8195;51.220;9.746;2023-11-18T17:40:58;5.60;;;4.17;;
16177;SDS011;8195;51.220;9.746;2023-11-18T17:45:18;4.83;;;4.40;;
16177;SDS011;8195;51.220;9.746;2023-11-18T17:49:38;4.00;;;3.60;;
16177;SDS011;8195;51.220;9.746;2023-11-18T17:53:59;4.30;;;3.90;;
16177;SDS011;8195;51.220;9.746;2023-11-18T17:58:19;3.60;;;3.20;;
16177;SDS011;8195;51.220;9.746;2023-11-18T18:15:40;2.20;;;2.10;;
16177;SDS011;8195;51.220;9.746;2023-11-18T20:54:26;5.83;;;5.00;;
16177;SDS011;8195;51.220;9.746;2023-11-18T20:58:46;2.90;;;2.60;;
16177;SDS011;8195;51.220;9.746;2023-11-18T21:12:14;2.80;;;2.60;;
16177;SDS011;8195;51.220;9.746;2023-11-18T21:16:34;3.73;;;2.80;;
16177;SDS011;8195;51.220;9.746;2023-11-18T21:20:55;3.10;;;2.80;;
16177;SDS011;8195;51.220;9.746;2023-11-18T21:25:15;3.17;;;2.60;;
16177;SDS011;8195;51.220;9.746;2023-11-18T21:29:35;3.00;;;2.80;;
16177;SDS011;8195;51.220;9.746;2023-11-18T21:33:56;2.90;;;2.70;;
16177;SDS011;8195;51.220;9.746;2023-11-18T21:38:17;4.13;;;3.70;;
16177;SDS011;8195;51.220;9.746;2023-11-18T21:42:39;3.50;;;3.23;;
16177;SDS011;8195;51.220;9.746;2023-11-18T21:47:00;3.87;;;3.57;;
16177;SDS011;8195;51.220;9.746;2023-11-18T21:51:21;3.97;;;3.67;;
16177;SDS011;8195;51.220;9.746;2023-11-18T21:55:41;4.07;;;3.77;;
16177;SDS011;8195;51.220;9.746;2023-11-18T22:00:02;3.97;;;3.67;;
16177;SDS011;8195;51.220;9.746;2023-11-18T22:04:22;4.10;;;3.80;;
16177;SDS011;8195;51.220;9.746;2023-11-18T22:08:43;4.60;;;4.20;;
16177;SDS011;8195;51.220;9.746;2023-11-18T22:13:03;4.80;;;4.40;;
16177;SDS011;8195;51.220;9.746;2023-11-18T22:17:26;5.00;;;4.53;;
16177;SDS011;8195;51.220;9.746;2023-11-18T22:21:47;4.77;;;4.47;;
16177;SDS011;8195;51.220;9.746;2023-11-18T22:26:07;5.07;;;4.67;;
16177;SDS011;8195;51.220;9.746;2023-11-18T22:30:28;4.87;;;4.47;;
16177;SDS011;8195;51.220;9.746;2023-11-18T22:34:48;5.20;;;4.80;;
16177;SDS011;8195;51.220;9.746;2023-11-18T22:39:09;4.87;;;4.53;;
16177;SDS011;8195;51.220;9.746;2023-11-18T22:43:29;5.77;;;5.27;;
16177;SDS011;8195;51.220;9.746;2023-11-18T22:47:49;5.83;;;5.30;;
16177;SDS011;8195;51.220;9.746;2023-11-18T22:52:10;5.17;;;4.67;;
16177;SDS011;8195;51.220;9.746;2023-11-18T22:56:30;6.23;;;5.73;;
16177;SDS011;8195;51.220;9.746;2023-11-18T23:00:50;5.90;;;5.40;;
16177;SDS011;8195;51.220;9.746;2023-11-18T23:05:11;6.13;;;5.63;;
16177;SDS011;8195;51.220;9.746;2023-11-18T23:09:31;5.97;;;5.57;;
16177;SDS011;8195;51.220;9.746;2023-11-18T23:13:51;6.47;;;5.97;;
16177;SDS011;8195;51.220;9.746;2023-11-18T23:18:12;7.53;;;6.83;;
16177;SDS011;8195;51.220;9.746;2023-11-18T23:22:32;6.77;;;6.17;;
16177;SDS011;8195;51.220;9.746;2023-11-18T23:26:52;7.73;;;7.10;;
16177;SDS011;8195;51.220;9.746;2023-11-18T23:31:13;7.03;;;6.43;;
16177;SDS011;8195;51.220;9.746;2023-11-18T23:35:33;6.63;;;6.10;;
16177;SDS011;8195;51.220;9.746;2023-11-18T23:39:53;7.00;;;6.40;;
16177;SDS011;8195;51.220;9.746;2023-11-18T23:44:13;6.27;;;5.67;;
16177;SDS011;8195;51.220;9.746;2023-11-18T23:48:34;5.13;;;4.73;;
16177;SDS011;8195;51.220;9.746;2023-11-18T23:52:54;5.47;;;5.07;;
16177;SDS011;8195;51.220;9.746;2023-11-18T23:57:14;5.43;;;5.03;;
